Time;durP1;ratioP1;P1;durP2;ratioP2;P2;SDS_P1;SDS_P2;PMS_P1;PMS_P2;Temp;Humidity;BMP_temperature;BMP_pressure;BME280_temperature;BME280_humidity;BME280_pressure;Samples;Min_cycle;Max_cycle;Signal;HPM_P1;HPM_P2
2021/11/03 00:02:26;;;;;;;;;;;;;;;19.26;62.65;100441.03;5012799;28;1500;-41
2021/11/03 00:04:52;;;;;;;;;;;;;;;19.24;63.02;100438.47;5011442;28;1938;-41
2021/11/03 00:07:19;;;;;;;;;;;;;;;19.27;62.46;100456.94;5004310;28;1735;-41
2021/11/03 00:09:45;;;;;;;;;;;;;;;19.31;61.69;100446.78;5020773;28;1650;-41
2021/11/03 00:12:13;;;;;;;;;;;;;;;19.30;61.89;100447.78;5006900;28;1143;-41
2021/11/03 00:14:40;;;;;;;;;;;;;;;19.28;61.67;100444.41;4999993;28;1920;-41
2021/11/03 00:17:07;;;;;;;;;;;;;;;19.33;62.77;100460.88;5007987;28;1910;-42
2021/11/03 00:19:34;;;;;;;;;;;;;;;19.28;61.89;100460.50;5006009;28;1501;-41
2021/11/03 00:22:00;;;;;;;;;;;;;;;19.25;62.66;100474.16;5006795;28;1843;-41
2021/11/03 00:24:27;;;;;;;;;;;;;;;19.22;62.22;100480.69;5004522;28;1178;-41
2021/11/03 00:26:53;;;;;;;;;;;;;;;19.21;61.76;100475.44;5006129;28;1753;-41
2021/11/03 00:29:20;;;;;;;;;;;;;;;19.21;62.13;100472.78;5005096;28;1902;-41
2021/11/03 00:31:47;;;;;;;;;;;;;;;19.34;61.01;100486.72;5006106;28;1734;-41
2021/11/03 00:34:14;;;;;;;;;;;;;;;19.32;62.24;100477.09;5008710;28;1942;-41
2021/11/03 00:36:40;;;;;;;;;;;;;;;19.37;61.90;100475.69;5006107;28;1939;-41
2021/11/03 00:39:07;;;;;;;;;;;;;;;19.29;62.75;100483.63;5001818;28;1140;-41
2021/11/03 00:41:33;;;;;;;;;;;;;;;19.28;61.81;100492.66;5009247;28;1970;-41
2021/11/03 00:44:00;;;;;;;;;;;;;;;19.25;61.39;100492.94;5003549;28;1925;-41
2021/11/03 00:46:26;;;;;;;;;;;;;;;19.23;62.40;100502.97;5003882;28;1525;-41
2021/11/03 00:48:54;;;;;;;;;;;;;;;19.24;61.93;100496.63;5004207;28;1778;-41
2021/11/03 00:51:20;;;;;;;;;;;;;;;19.23;61.29;100495.75;5004896;28;1774;-41
2021/11/03 00:53:47;;;;;;;;;;;;;;;19.27;61.56;100499.84;5007564;28;1647;-41
2021/11/03 00:56:13;;;;;;;;;;;;;;;19.25;61.96;100492.94;5015223;28;1906;-41
2021/11/03 00:58:40;;;;;;;;;;;;;;;19.23;62.09;100495.75;5005379;28;1855;-41
2021/11/03 01:01:06;;;;;;;;;;;;;;;19.23;61.09;100489.56;5014706;28;1925;-42
2021/11/03 01:03:33;;;;;;;;;;;;;;;19.22;60.90;100501.28;5009619;28;1892;-41
2021/11/03 01:06:01;;;;;;;;;;;;;;;19.21;61.71;100494.22;5007406;28;1694;-41
2021/11/03 01:08:27;;;;;;;;;;;;;;;19.16;61.99;100504.50;5003556;28;1085;-41
2021/11/03 01:10:54;;;;;;;;;;;;;;;19.10;62.12;100499.72;5005544;28;1949;-41
2021/11/03 01:13:21;;;;;;;;;;;;;;;19.11;62.65;100526.38;5002659;28;1844;-41
2021/11/03 01:15:48;;;;;;;;;;;;;;;19.15;61.79;100514.38;5005951;28;998;-41
2021/11/03 01:18:15;;;;;;;;;;;;;;;19.10;61.86;100503.28;5004618;28;1973;-41
2021/11/03 01:20:41;;;;;;;;;;;;;;;19.15;61.09;100509.03;5004866;28;1780;-41
2021/11/03 01:23:10;;;;;;;;;;;;;;;19.14;62.29;100511.84;5007450;28;1643;-41
2021/11/03 01:25:36;;;;;;;;;;;;;;;19.20;60.82;100522.00;5008841;28;1908;-41
2021/11/03 01:28:03;;;;;;;;;;;;;;;19.17;61.81;100522.28;5005646;28;1976;-41
2021/11/03 01:30:30;;;;;;;;;;;;;;;19.20;60.83;100524.69;5009244;28;1850;-41
2021/11/03 01:32:57;;;;;;;;;;;;;;;19.14;61.36;100528.81;5009117;28;1737;-41
2021/11/03 01:35:24;;;;;;;;;;;;;;;19.17;61.54;100538.38;5005232;28;2057;-41
2021/11/03 01:37:51;;;;;;;;;;;;;;;19.16;61.30;100548.25;5005260;28;1902;-41
2021/11/03 01:40:21;;;;;;;;;;;;;;;19.15;61.68;100551.91;5001824;28;1903;-41
2021/11/03 01:42:47;;;;;;;;;;;;;;;19.13;61.03;100545.00;5004007;28;1539;-41
2021/11/03 01:45:15;;;;;;;;;;;;;;;19.15;60.51;100551.91;5003344;28;1617;-41
2021/11/03 01:47:44;;;;;;;;;;;;;;;19.14;60.97;100552.91;5005396;28;1132;-41
2021/11/03 01:50:15;;;;;;;;;;;;;;;19.17;61.22;100557.97;5011573;28;1808;-41
2021/11/03 01:52:43;;;;;;;;;;;;;;;19.15;60.97;100556.44;5004063;28;1753;-41
2021/11/03 01:55:11;;;;;;;;;;;;;;;19.23;61.30;100553.91;5019111;28;1884;-41
2021/11/03 01:57:41;;;;;;;;;;;;;;;19.14;61.07;100550.25;5002957;28;1906;-41
2021/11/03 02:00:10;;;;;;;;;;;;;;;19.17;60.31;100571.38;5004052;28;1949;-41
2021/11/03 02:02:37;;;;;;;;;;;;;;;19.21;60.59;100566.59;5002582;28;1414;-41
2021/11/03 02:05:07;;;;;;;;;;;;;;;19.69;60.16;100589.81;5012344;28;1709;-41
2021/11/03 02:07:34;;;;;;;;;;;;;;;19.93;59.59;100583.16;5006394;28;1612;-41
2021/11/03 02:10:00;;;;;;;;;;;;;;;20.00;59.94;100589.66;4994278;28;1723;-41
2021/11/03 02:12:28;;;;;;;;;;;;;;;20.22;59.58;100599.16;5004200;28;1091;-41
2021/11/03 02:14:56;;;;;;;;;;;;;;;20.24;59.41;100598.03;5002061;28;1892;-41
2021/11/03 02:17:25;;;;;;;;;;;;;;;19.91;59.65;100604.75;5002695;28;1918;-41
2021/11/03 02:19:52;;;;;;;;;;;;;;;19.73;60.11;100593.94;5003378;28;1813;-41
2021/11/03 02:22:21;;;;;;;;;;;;;;;19.93;60.31;100591.22;5003341;28;1754;-41
2021/11/03 02:24:53;;;;;;;;;;;;;;;19.99;60.59;100610.25;5007662;28;1643;-41
2021/11/03 02:27:21;;;;;;;;;;;;;;;20.08;60.12;100619.28;5004613;28;1134;-41
2021/11/03 02:29:48;;;;;;;;;;;;;;;19.94;60.05;100596.44;5011344;28;1752;-41
2021/11/03 02:32:17;;;;;;;;;;;;;;;19.75;61.49;100601.84;5010691;28;1808;-41
2021/11/03 02:34:43;;;;;;;;;;;;;;;19.75;59.79;100613.41;5014031;28;2181;-42
2021/11/03 02:37:28;;;;;;;;;;;;;;;19.99;60.97;100601.34;5013658;28;1910;-41
2021/11/03 02:39:57;;;;;;;;;;;;;;;20.03;61.17;100598.25;5014048;28;1424;-41
2021/11/03 02:42:26;;;;;;;;;;;;;;;20.00;59.82;100603.91;5013511;28;1375;-42
2021/11/03 02:44:54;;;;;;;;;;;;;;;19.80;60.75;100605.78;5014724;28;1599;-41
2021/11/03 02:47:20;;;;;;;;;;;;;;;19.82;59.82;100611.84;5009586;28;1980;-41
2021/11/03 02:49:47;;;;;;;;;;;;;;;19.88;59.71;100623.84;5007688;28;1785;-41
2021/11/03 02:52:14;;;;;;;;;;;;;;;19.96;60.47;100605.19;5004357;28;2042;-41
2021/11/03 02:54:40;;;;;;;;;;;;;;;19.76;60.22;100623.19;5006127;28;1690;-41
2021/11/03 02:57:07;;;;;;;;;;;;;;;19.79;60.21;100646.19;5016774;28;1902;-40
2021/11/03 02:59:35;;;;;;;;;;;;;;;20.00;59.86;100643.31;5011220;28;1822;-41
2021/11/03 03:02:02;;;;;;;;;;;;;;;19.92;60.10;100652.09;5083803;23;3698;-41
2021/11/03 03:04:31;;;;;;;;;;;;;;;19.74;61.23;100627.84;4962046;28;1615;-41
2021/11/03 03:06:57;;;;;;;;;;;;;;;19.79;61.17;100652.38;4967526;28;1432;-41
2021/11/03 03:09:24;;;;;;;;;;;;;;;20.00;60.17;100667.47;4965981;28;1081;-41
2021/11/03 03:11:54;;;;;;;;;;;;;;;19.93;59.87;100669.03;4966895;28;1891;-41
2021/11/03 03:14:22;;;;;;;;;;;;;;;19.83;60.03;100669.88;4968900;28;1686;-41
2021/11/03 03:16:49;;;;;;;;;;;;;;;19.70;59.94;100663.97;4966940;28;1907;-41
2021/11/03 03:19:16;;;;;;;;;;;;;;;20.01;59.80;100678.06;4965683;28;1079;-41
2021/11/03 03:21:42;;;;;;;;;;;;;;;19.93;59.72;100675.25;4962814;28;1832;-42
2021/11/03 03:24:10;;;;;;;;;;;;;;;19.74;60.45;100677.97;4961001;28;1151;-41
2021/11/03 03:26:37;;;;;;;;;;;;;;;19.72;60.60;100682.63;4965051;28;2061;-41
2021/11/03 03:29:04;;;;;;;;;;;;;;;20.03;59.28;100688.66;4969574;28;1936;-41
2021/11/03 03:31:30;;;;;;;;;;;;;;;20.03;59.14;100681.47;4965291;28;1478;-42
2021/11/03 03:33:59;;;;;;;;;;;;;;;19.82;60.90;100678.94;4964794;28;1515;-41
2021/11/03 03:36:26;;;;;;;;;;;;;;;19.70;59.82;100701.53;4968901;28;2011;-41
2021/11/03 03:38:53;;;;;;;;;;;;;;;20.05;59.45;100695.59;4967735;28;1903;-41
2021/11/03 03:41:21;;;;;;;;;;;;;;;19.98;60.08;100688.25;4968237;28;1632;-41
2021/11/03 03:43:47;;;;;;;;;;;;;;;19.81;61.09;100698.69;4969013;28;1959;-41
2021/11/03 03:46:14;;;;;;;;;;;;;;;19.73;60.01;100701.25;4964885;28;1589;-41
2021/11/03 03:48:41;;;;;;;;;;;;;;;20.13;59.59;100692.16;4966089;28;1573;-42
2021/11/03 03:51:10;;;;;;;;;;;;;;;20.17;58.98;100714.19;4970954;28;1840;-41
2021/11/03 03:53:36;;;;;;;;;;;;;;;19.89;59.82;100705.19;4971718;28;1803;-41
2021/11/03 03:56:03;;;;;;;;;;;;;;;19.78;60.72;100703.53;4968020;28;1929;-41
2021/11/03 03:58:29;;;;;;;;;;;;;;;20.07;59.75;100698.09;4965293;28;1910;-41
2021/11/03 04:00:56;;;;;;;;;;;;;;;20.04;59.86;100720.72;4969015;28;1545;-41
2021/11/03 04:03:22;;;;;;;;;;;;;;;19.81;60.35;100711.28;4967872;28;1337;-42
2021/11/03 04:05:50;;;;;;;;;;;;;;;19.75;60.21;100719.91;4970158;28;1576;-42
2021/11/03 04:08:19;;;;;;;;;;;;;;;19.91;60.50;100713.97;4972089;28;1092;-42
2021/11/03 04:10:46;;;;;;;;;;;;;;;19.79;61.68;100708.72;4967781;28;1399;-41
2021/11/03 04:13:14;;;;;;;;;;;;;;;19.59;61.95;100705.16;4974851;28;1613;-42
2021/11/03 04:15:41;;;;;;;;;;;;;;;19.49;61.77;100712.38;4966968;28;1381;-42
2021/11/03 04:18:07;;;;;;;;;;;;;;;19.72;61.52;100710.31;4967276;28;1914;-41
2021/11/03 04:20:34;;;;;;;;;;;;;;;19.69;62.06;100707.88;4966957;28;1520;-41
2021/11/03 04:23:00;;;;;;;;;;;;;;;19.60;63.06;100711.41;4969817;28;1507;-41
2021/11/03 04:25:28;;;;;;;;;;;;;;;19.35;63.89;100712.78;4971093;28;1477;-41
2021/11/03 04:27:54;;;;;;;;;;;;;;;19.50;63.71;100718.56;4966023;28;1570;-41
2021/11/03 04:30:22;;;;;;;;;;;;;;;19.84;62.36;100725.25;4964268;28;1756;-42
2021/11/03 04:32:49;;;;;;;;;;;;;;;19.66;62.75;100703.63;4959964;28;1738;-42
2021/11/03 04:35:15;;;;;;;;;;;;;;;19.43;63.35;100700.38;4970616;28;1673;-41
2021/11/03 04:37:42;;;;;;;;;;;;;;;19.53;63.90;100710.25;4967215;28;1973;-41
2021/11/03 04:40:11;;;;;;;;;;;;;;;19.70;62.67;100700.69;4956240;28;1679;-41
2021/11/03 04:42:38;;;;;;;;;;;;;;;19.73;63.55;100698.56;4969533;28;1861;-41
2021/11/03 04:45:07;;;;;;;;;;;;;;;19.71;62.54;100723.81;4972959;28;1606;-41
2021/11/03 04:47:34;;;;;;;;;;;;;;;19.68;62.45;100724.97;4956063;28;1110;-41
2021/11/03 04:50:01;;;;;;;;;;;;;;;20.01;62.22;100728.22;4955820;28;1729;-42
2021/11/03 04:52:28;;;;;;;;;;;;;;;19.93;63.52;100717.34;4964495;28;1905;-42
2021/11/03 04:54:56;;;;;;;;;;;;;;;19.83;63.61;100718.19;4972674;28;1741;-42
2021/11/03 04:57:22;;;;;;;;;;;;;;;19.65;64.19;100730.59;4965879;28;1956;-42
2021/11/03 04:59:50;;;;;;;;;;;;;;;19.98;62.16;100732.03;4972515;28;1877;-42
2021/11/03 05:02:17;;;;;;;;;;;;;;;19.89;62.73;100737.41;4969517;28;1689;-41
2021/11/03 05:04:43;;;;;;;;;;;;;;;19.74;64.16;100737.00;4969683;28;1365;-42
2021/11/03 05:07:11;;;;;;;;;;;;;;;19.70;63.71;100743.59;4962600;28;2007;-43
2021/11/03 05:09:39;;;;;;;;;;;;;;;20.00;63.41;100750.69;4977365;28;1636;-42
2021/11/03 05:12:06;;;;;;;;;;;;;;;19.94;63.86;100752.09;4970415;28;1813;-42
2021/11/03 05:14:33;;;;;;;;;;;;;;;19.76;64.23;100743.91;4971963;28;1639;-42
2021/11/03 05:17:15;;;;;;;;;;;;;;;19.64;65.18;100758.44;4967632;28;1328;-42
2021/11/03 05:19:57;;;;;;;;;;;;;;;19.86;64.27;100746.59;4966838;28;1910;-42
2021/11/03 05:22:29;;;;;;;;;;;;;;;19.88;63.77;100767.94;4967017;28;1873;-42
2021/11/03 05:24:56;;;;;;;;;;;;;;;19.81;63.74;100767.63;4963839;28;1551;-42
2021/11/03 05:27:23;;;;;;;;;;;;;;;19.68;64.38;100781.31;4965607;28;1075;-42
2021/11/03 05:29:49;;;;;;;;;;;;;;;20.06;63.93;100772.44;4965046;28;1814;-42
2021/11/03 05:32:16;;;;;;;;;;;;;;;19.91;64.23;100762.25;4966713;28;1617;-43
2021/11/03 05:34:43;;;;;;;;;;;;;;;19.66;63.80;100778.75;4967142;28;1663;-42
2021/11/03 05:37:11;;;;;;;;;;;;;;;19.75;64.65;100779.78;4965795;28;1759;-43
2021/11/03 05:39:42;;;;;;;;;;;;;;;19.98;63.23;100790.25;4975272;28;1976;-42
2021/11/03 05:42:09;;;;;;;;;;;;;;;19.97;63.51;100793.91;4973190;28;1855;-42
2021/11/03 05:44:43;;;;;;;;;;;;;;;19.90;64.68;100792.78;4956783;28;2024;-42
2021/11/03 05:47:23;;;;;;;;;;;;;;;19.81;64.69;100826.66;4967260;28;1915;-42
2021/11/03 05:50:00;;;;;;;;;;;;;;;19.93;63.63;100811.28;4970077;28;1900;-42
2021/11/03 05:52:29;;;;;;;;;;;;;;;19.88;63.97;100803.66;4959856;28;2632;-42
2021/11/03 05:54:58;;;;;;;;;;;;;;;19.66;65.86;100813.63;4972706;28;1619;-42
2021/11/03 05:57:27;;;;;;;;;;;;;;;19.90;63.90;100814.25;4964581;28;1598;-42
2021/11/03 05:59:55;;;;;;;;;;;;;;;19.96;63.69;100824.44;4969365;28;1903;-42
2021/11/03 06:02:32;;;;;;;;;;;;;;;19.90;64.24;100827.69;4971867;28;1798;-42
2021/11/03 06:05:00;;;;;;;;;;;;;;;19.78;64.53;100822.44;4962505;28;1670;-42
2021/11/03 06:10:12;;;;;;;;;;;;;;;19.83;66.15;100835.41;4963648;28;2293;-42
2021/11/03 06:12:40;;;;;;;;;;;;;;;19.70;65.21;100822.25;4968638;28;1664;-42
2021/11/03 06:15:08;;;;;;;;;;;;;;;19.74;65.25;100837.13;4968545;28;1731;-42
2021/11/03 06:17:35;;;;;;;;;;;;;;;20.02;64.63;100829.25;4961994;28;1521;-42
2021/11/03 06:20:01;;;;;;;;;;;;;;;19.99;65.05;100841.09;4959039;28;2020;-42
2021/11/03 06:22:28;;;;;;;;;;;;;;;19.82;64.94;100844.47;4965034;28;1658;-42
2021/11/03 06:24:59;;;;;;;;;;;;;;;19.81;65.96;100848.97;4972268;28;1650;-42
2021/11/03 06:27:27;;;;;;;;;;;;;;;19.96;65.13;100859.34;4963467;28;1487;-42
2021/11/03 06:29:54;;;;;;;;;;;;;;;19.68;64.55;100853.75;4968483;28;1562;-42
2021/11/03 06:32:20;;;;;;;;;;;;;;;19.46;65.14;100862.84;4962952;28;1626;-42
2021/11/03 06:34:47;;;;;;;;;;;;;;;19.60;65.00;100859.78;4962198;28;1627;-42
2021/11/03 06:37:13;;;;;;;;;;;;;;;19.72;64.01;100859.72;4962589;28;1643;-42
2021/11/03 06:39:40;;;;;;;;;;;;;;;19.60;64.61;100869.69;4957392;28;2809;-42
2021/11/03 06:42:06;;;;;;;;;;;;;;;19.41;64.42;100878.50;4957988;28;2163;-42
2021/11/03 06:44:34;;;;;;;;;;;;;;;19.56;65.89;100881.66;4963687;28;1805;-42
2021/11/03 06:47:04;;;;;;;;;;;;;;;19.80;64.09;100892.91;4966354;28;1981;-42
2021/11/03 06:49:31;;;;;;;;;;;;;;;19.61;63.82;100877.56;4961410;28;1540;-42
2021/11/03 06:51:57;;;;;;;;;;;;;;;19.42;64.53;100891.78;4969003;28;1574;-43
2021/11/03 06:54:24;;;;;;;;;;;;;;;19.69;64.28;100874.19;4972822;28;1847;-42
2021/11/03 06:56:50;;;;;;;;;;;;;;;19.81;63.42;100881.16;4962042;28;1790;-42
2021/11/03 06:59:18;;;;;;;;;;;;;;;19.66;64.79;100882.53;4969808;28;1918;-43
2021/11/03 07:01:46;;;;;;;;;;;;;;;19.52;65.42;100893.63;4962644;28;1545;-42
2021/11/03 07:04:14;;;;;;;;;;;;;;;19.67;65.13;100885.06;4961533;28;1667;-43
2021/11/03 07:06:40;;;;;;;;;;;;;;;19.89;63.48;100885.00;4965971;28;1395;-42
2021/11/03 07:09:07;;;;;;;;;;;;;;;19.75;63.87;100884.41;4959877;28;1931;-42
2021/11/03 07:11:33;;;;;;;;;;;;;;;19.57;65.54;100891.41;4961938;28;2106;-42
2021/11/03 07:14:00;;;;;;;;;;;;;;;19.79;63.77;100880.47;4957123;28;2028;-42
2021/11/03 07:16:27;;;;;;;;;;;;;;;19.88;64.25;100891.38;4965969;28;1753;-42
2021/11/03 07:18:55;;;;;;;;;;;;;;;19.71;64.51;100896.41;4973751;28;1906;-42
2021/11/03 07:21:21;;;;;;;;;;;;;;;19.57;65.00;100894.06;4977627;28;1075;-42
2021/11/03 07:23:48;;;;;;;;;;;;;;;19.90;64.36;100890.25;4967621;28;2096;-42
2021/11/03 07:26:14;;;;;;;;;;;;;;;19.94;63.18;100880.09;4965748;28;1917;-42
2021/11/03 07:28:41;;;;;;;;;;;;;;;19.75;63.91;100867.47;4965053;28;1943;-42
2021/11/03 07:31:08;;;;;;;;;;;;;;;19.57;65.40;100867.25;4970295;28;1610;-42
2021/11/03 07:33:34;;;;;;;;;;;;;;;19.80;64.89;100878.66;4970413;28;1556;-43
2021/11/03 07:36:03;;;;;;;;;;;;;;;19.89;63.46;100866.22;4967259;28;1783;-43
2021/11/03 07:38:30;;;;;;;;;;;;;;;19.79;63.71;100863.53;4966580;28;1918;-42
2021/11/03 07:40:57;;;;;;;;;;;;;;;19.61;65.02;100871.34;4960104;28;1790;-42
2021/11/03 07:43:25;;;;;;;;;;;;;;;19.88;63.39;100865.38;4965283;28;1728;-42
2021/11/03 07:45:52;;;;;;;;;;;;;;;20.00;63.08;100860.75;4968323;28;1675;-42
2021/11/03 07:48:20;;;;;;;;;;;;;;;19.81;63.66;100869.59;4972524;28;1765;-42
2021/11/03 07:50:48;;;;;;;;;;;;;;;19.72;64.13;100865.91;4961792;28;1644;-42
2021/11/03 07:53:22;;;;;;;;;;;;;;;19.99;63.45;100867.94;4975821;28;1528;-42
2021/11/03 07:55:52;;;;;;;;;;;;;;;20.12;63.11;100870.34;4967106;28;1882;-42
2021/11/03 07:58:21;;;;;;;;;;;;;;;19.91;63.59;100889.25;4968499;28;2107;-42
2021/11/03 08:00:49;;;;;;;;;;;;;;;19.75;64.35;100876.38;4957153;28;1642;-42
2021/11/03 08:03:23;;;;;;;;;;;;;;;19.99;64.25;100892.09;4955601;28;1455;-42
2021/11/03 08:05:51;;;;;;;;;;;;;;;20.05;63.52;100899.59;4961573;28;1667;-42
2021/11/03 08:08:56;;;;;;;;;;;;;;;19.92;63.71;100892.81;4971425;28;1083;-42
2021/11/03 08:11:29;;;;;;;;;;;;;;;20.02;63.48;100897.19;4972316;28;1769;-42
2021/11/03 08:13:56;;;;;;;;;;;;;;;20.33;62.67;100899.75;4956505;28;1992;-42
2021/11/03 08:16:24;;;;;;;;;;;;;;;20.14;63.89;100903.28;4958519;28;1799;-42
2021/11/03 08:18:52;;;;;;;;;;;;;;;19.96;63.84;100900.44;4960257;28;1977;-43
2021/11/03 08:21:27;;;;;;;;;;;;;;;20.03;63.83;100893.53;4975394;28;1819;-43
2021/11/03 08:24:00;;;;;;;;;;;;;;;20.19;63.21;100897.47;4968254;28;1538;-42
2021/11/03 08:26:28;;;;;;;;;;;;;;;20.04;63.75;100892.53;4970574;28;1558;-44
2021/11/03 08:28:55;;;;;;;;;;;;;;;19.91;65.00;100888.41;4968758;28;1592;-42
2021/11/03 08:31:21;;;;;;;;;;;;;;;20.21;64.48;100892.81;4965899;28;1429;-42
2021/11/03 08:33:49;;;;;;;;;;;;;;;20.36;64.12;100898.63;4965565;28;1664;-42
2021/11/03 08:36:16;;;;;;;;;;;;;;;20.15;63.85;100910.31;4970951;28;1750;-42
2021/11/03 08:38:43;;;;;;;;;;;;;;;20.02;64.28;100904.41;4974078;28;1981;-42
2021/11/03 08:41:11;;;;;;;;;;;;;;;20.29;63.76;100910.91;4969498;28;1824;-42
2021/11/03 08:43:42;;;;;;;;;;;;;;;20.29;64.51;100901.00;4964654;28;1643;-42
2021/11/03 08:46:09;;;;;;;;;;;;;;;20.08;64.15;100903.84;4963139;28;1148;-42
2021/11/03 08:48:39;;;;;;;;;;;;;;;20.05;65.32;100901.41;4965903;28;1746;-42
2021/11/03 08:51:08;;;;;;;;;;;;;;;19.96;64.47;100897.75;4969753;28;1811;-42
2021/11/03 08:53:37;;;;;;;;;;;;;;;19.85;65.61;100885.28;4975123;28;1635;-42
2021/11/03 08:56:08;;;;;;;;;;;;;;;19.81;65.03;100888.38;4967496;28;1381;-42
2021/11/03 08:58:40;;;;;;;;;;;;;;;19.86;64.72;100910.31;4964176;28;1643;-42
2021/11/03 09:01:06;;;;;;;;;;;;;;;19.88;64.40;100897.59;4975105;28;1679;-42
2021/11/03 09:03:37;;;;;;;;;;;;;;;19.90;65.35;100900.16;4974699;28;1395;-42
2021/11/03 09:06:03;;;;;;;;;;;;;;;19.94;64.35;100901.56;4966070;28;1941;-43
2021/11/03 09:08:31;;;;;;;;;;;;;;;19.96;65.09;100908.47;4971949;28;1726;-42
2021/11/03 09:11:04;;;;;;;;;;;;;;;20.00;64.42;100914.44;4971580;28;1307;-42
2021/11/03 09:13:33;;;;;;;;;;;;;;;19.95;64.80;100919.34;4974872;28;1368;-42
2021/11/03 09:16:04;;;;;;;;;;;;;;;19.98;63.76;100911.03;4967546;28;1186;-42
2021/11/03 09:18:31;;;;;;;;;;;;;;;19.92;64.77;100917.81;4978687;28;1855;-42
2021/11/03 09:21:03;;;;;;;;;;;;;;;19.80;64.11;100916.22;4970859;28;2078;-42
2021/11/03 09:23:33;;;;;;;;;;;;;;;19.74;65.24;100919.47;4966811;28;1239;-42
2021/11/03 09:26:00;;;;;;;;;;;;;;;19.69;64.15;100898.34;4966486;28;1531;-42
2021/11/03 09:28:31;;;;;;;;;;;;;;;19.70;64.74;100918.84;4973587;28;1901;-43
2021/11/03 09:31:01;;;;;;;;;;;;;;;19.66;65.60;100904.00;4968226;28;1679;-42
2021/11/03 09:33:33;;;;;;;;;;;;;;;19.62;65.46;100918.69;4970977;28;1563;-42
2021/11/03 09:36:02;;;;;;;;;;;;;;;19.59;64.75;100918.94;4971520;28;2110;-42
2021/11/03 09:38:31;;;;;;;;;;;;;;;19.62;65.47;100924.88;4974939;28;1339;-42
2021/11/03 09:41:02;;;;;;;;;;;;;;;19.64;64.65;100936.31;4965801;28;1993;-42
2021/11/03 09:43:31;;;;;;;;;;;;;;;19.64;64.45;100919.38;4969505;28;1531;-42
2021/11/03 09:45:59;;;;;;;;;;;;;;;19.70;65.38;100926.88;4972043;28;1483;-42
2021/11/03 09:48:33;;;;;;;;;;;;;;;19.67;64.10;100911.06;4962469;28;1647;-43
2021/11/03 09:51:03;;;;;;;;;;;;;;;19.71;64.24;100900.91;4969409;28;1572;-42
2021/11/03 09:53:31;;;;;;;;;;;;;;;19.73;65.03;100905.16;4974946;28;1260;-42
2021/11/03 09:56:01;;;;;;;;;;;;;;;19.70;64.06;100897.38;4971746;28;1831;-42
2021/11/03 09:58:35;;;;;;;;;;;;;;;19.69;63.63;100903.72;4967448;28;1412;-42
2021/11/03 10:01:24;;;;;;;;;;;;;;;19.80;63.72;100906.31;4968288;28;1902;-44
2021/11/03 10:04:01;;;;;;;;;;;;;;;19.81;64.64;100910.69;4941805;29;1851;-42
2021/11/03 10:06:45;;;;;;;;;;;;;;;19.83;63.65;100905.19;4951298;28;1687;-43
2021/11/03 10:09:14;;;;;;;;;;;;;;;19.79;63.34;100903.78;4952305;29;1342;-43
2021/11/03 10:11:41;;;;;;;;;;;;;;;19.80;64.18;100905.50;4951742;28;1975;-42
2021/11/03 10:14:11;;;;;;;;;;;;;;;19.80;63.69;100900.97;4949782;28;1550;-42
2021/11/03 10:16:40;;;;;;;;;;;;;;;19.70;63.23;100889.31;4943816;29;1697;-42
2021/11/03 10:19:25;;;;;;;;;;;;;;;19.75;62.84;100892.47;4949745;28;1903;-43
2021/11/03 10:22:06;;;;;;;;;;;;;;;19.79;63.54;100890.34;4955664;28;1477;-42
2021/11/03 10:24:47;;;;;;;;;;;;;;;19.71;63.33;100884.81;4954668;29;1418;-42
2021/11/03 10:27:40;;;;;;;;;;;;;;;19.81;63.82;100893.75;4952384;29;1454;-42
2021/11/03 10:30:21;;;;;;;;;;;;;;;19.75;63.93;100875.53;4954868;28;1636;-42
2021/11/03 10:32:47;;;;;;;;;;;;;;;19.78;63.82;100864.53;4956708;28;1729;-43
2021/11/03 10:35:34;;;;;;;;;;;;;;;19.88;63.27;100865.38;4954253;28;1123;-43
2021/11/03 10:38:06;;;;;;;;;;;;;;;19.81;63.45;100856.19;4948333;28;1592;-42
2021/11/03 10:40:43;;;;;;;;;;;;;;;19.79;64.51;100872.41;4951575;28;1983;-42
2021/11/03 10:43:23;;;;;;;;;;;;;;;19.75;63.74;100862.94;4950282;28;1693;-42
2021/11/03 10:45:59;;;;;;;;;;;;;;;19.72;63.63;100860.56;4954905;28;1766;-42
2021/11/03 10:51:48;;;;;;;;;;;;;;;19.66;64.14;100851.19;4927717;29;2110;-42
2021/11/03 10:54:18;;;;;;;;;;;;;;;19.68;63.83;100849.22;4943853;29;1873;-42
2021/11/03 10:56:53;;;;;;;;;;;;;;;19.66;64.80;100866.44;4952815;28;2021;-42
2021/11/03 10:59:29;;;;;;;;;;;;;;;19.63;64.47;100867.53;4949165;29;1902;-42
2021/11/03 11:02:00;;;;;;;;;;;;;;;19.60;64.40;100856.25;4963021;28;2024;-42
2021/11/03 11:04:33;;;;;;;;;;;;;;;19.67;63.34;100843.97;4973860;28;1364;-42
2021/11/03 11:07:14;;;;;;;;;;;;;;;19.71;62.84;100842.75;4972504;28;1350;-42
2021/11/03 11:12:30;;;;;;;;;;;;;;;19.59;62.00;100841.13;4974109;28;1573;-42
2021/11/03 11:14:58;;;;;;;;;;;;;;;19.63;63.45;100845.25;4976460;28;1702;-43
2021/11/03 11:17:28;;;;;;;;;;;;;;;19.67;63.28;100858.22;4972685;28;1802;-42
2021/11/03 11:20:04;;;;;;;;;;;;;;;19.62;63.34;100846.25;4966842;28;1907;-42
2021/11/03 11:22:45;;;;;;;;;;;;;;;19.65;62.45;100848.63;4973010;28;1524;-42
2021/11/03 11:25:27;;;;;;;;;;;;;;;19.68;63.52;100853.75;4975758;28;1792;-43
2021/11/03 11:28:01;;;;;;;;;;;;;;;19.71;62.23;100848.09;4968062;28;1483;-42
2021/11/03 11:30:36;;;;;;;;;;;;;;;19.72;63.38;100841.78;4974237;28;1368;-43
2021/11/03 11:33:04;;;;;;;;;;;;;;;19.63;63.73;100848.75;4971026;28;2028;-42
2021/11/03 11:35:42;;;;;;;;;;;;;;;19.66;62.68;100835.09;4966765;28;1815;-43
2021/11/03 11:38:17;;;;;;;;;;;;;;;19.57;58.10;100833.22;4972003;28;1759;-42
2021/11/03 11:41:02;;;;;;;;;;;;;;;19.42;60.12;100827.41;4973291;28;1975;-42
2021/11/03 11:43:33;;;;;;;;;;;;;;;19.35;59.69;100831.59;4967332;28;1820;-42
2021/11/03 11:46:00;;;;;;;;;;;;;;;19.28;59.21;100825.13;4969577;28;1885;-42
2021/11/03 11:48:40;;;;;;;;;;;;;;;19.47;59.33;100825.16;4973041;28;1501;-43
2021/11/03 11:51:21;;;;;;;;;;;;;;;19.39;60.26;100821.47;4975092;28;1672;-42
2021/11/03 11:54:03;;;;;;;;;;;;;;;19.31;62.05;100840.91;4976791;28;1698;-42
2021/11/03 11:56:32;;;;;;;;;;;;;;;19.33;61.84;100822.84;4972109;28;2205;-42
2021/11/03 11:59:05;;;;;;;;;;;;;;;19.25;62.12;100815.50;4972594;28;1487;-42
2021/11/03 12:01:36;;;;;;;;;;;;;;;19.43;62.47;100834.47;4971045;28;1911;-42
2021/11/03 12:04:21;;;;;;;;;;;;;;;19.50;62.06;100823.19;4974171;28;1620;-42
2021/11/03 12:07:01;;;;;;;;;;;;;;;19.51;61.30;100819.53;4968708;28;1990;-43
2021/11/03 12:09:31;;;;;;;;;;;;;;;19.46;61.35;100812.75;4970506;28;1482;-42
2021/11/03 12:12:28;;;;;;;;;;;;;;;19.38;62.42;100819.78;4966767;28;1789;-42
2021/11/03 12:14:56;;;;;;;;;;;;;;;19.34;62.08;100812.97;4967180;28;1611;-42
2021/11/03 12:17:44;;;;;;;;;;;;;;;19.25;62.29;100820.00;4963881;28;1722;-42
2021/11/03 12:20:30;;;;;;;;;;;;;;;19.22;61.54;100836.38;4967031;28;1977;-42
2021/11/03 12:22:58;;;;;;;;;;;;;;;19.11;63.02;100839.16;4963822;28;1840;-42
2021/11/03 12:25:46;;;;;;;;;;;;;;;19.07;63.36;100827.84;4970279;28;1568;-42
2021/11/03 12:28:35;;;;;;;;;;;;;;;19.13;63.02;100827.31;4960065;28;1584;-42
2021/11/03 12:31:16;;;;;;;;;;;;;;;19.08;63.45;100841.13;4966074;28;1452;-42
2021/11/03 12:34:03;;;;;;;;;;;;;;;19.18;62.30;100842.97;4969311;28;1608;-43
2021/11/03 12:36:33;;;;;;;;;;;;;;;19.16;62.78;100844.94;4974941;28;1541;-40
2021/11/03 12:39:04;;;;;;;;;;;;;;;19.12;62.27;100847.06;4975381;28;1691;-39
2021/11/03 12:41:50;;;;;;;;;;;;;;;19.13;62.17;100847.91;4972433;28;1906;-40
2021/11/03 12:44:23;;;;;;;;;;;;;;;19.11;62.91;100855.22;4973777;28;1855;-39
2021/11/03 12:46:53;;;;;;;;;;;;;;;19.14;63.69;100860.31;4972072;28;1417;-39
2021/11/03 12:49:22;;;;;;;;;;;;;;;19.13;62.50;100843.38;4974032;28;1555;-40
2021/11/03 12:51:54;;;;;;;;;;;;;;;19.16;63.18;100855.66;4973497;28;1683;-40
2021/11/03 12:54:22;;;;;;;;;;;;;;;19.18;62.42;100851.88;4963070;28;1406;-40
2021/11/03 12:56:56;;;;;;;;;;;;;;;19.08;62.28;100846.47;4967289;28;1605;-40
2021/11/03 12:59:25;;;;;;;;;;;;;;;19.13;62.82;100859.47;4972244;28;1831;-40
2021/11/03 13:01:56;;;;;;;;;;;;;;;19.13;62.03;100858.63;4967858;28;1973;-40
2021/11/03 13:04:24;;;;;;;;;;;;;;;19.12;62.92;100856.91;4960278;28;1954;-40
2021/11/03 13:06:59;;;;;;;;;;;;;;;19.15;62.29;100857.50;4963324;28;1419;-40
2021/11/03 13:09:30;;;;;;;;;;;;;;;19.18;62.36;100856.38;4978891;28;1649;-40
2021/11/03 13:11:57;;;;;;;;;;;;;;;19.11;63.62;100865.94;4972197;28;1753;-40